sensor_id;sensor_type;location;lat;lon;timestamp;P1;durP1;ratioP1;P2;durP2;ratioP2
65667;SDS011;52369;52.542;13.232;2022-09-28T00:01:45;12.25;;;5.28;;
65667;SDS011;52369;52.542;13.232;2022-09-28T00:04:11;4.30;;;2.63;;
65667;SDS011;52369;52.542;13.232;2022-09-28T00:06:37;5.05;;;3.00;;
65667;SDS011;52369;52.542;13.232;2022-09-28T00:09:03;12.15;;;5.03;;
65667;SDS011;52369;52.542;13.232;2022-09-28T00:11:30;3.03;;;2.00;;
65667;SDS011;52369;52.542;13.232;2022-09-28T00:13:57;3.78;;;2.53;;
65667;SDS011;52369;52.542;13.232;2022-09-28T00:16:26;5.28;;;2.92;;
65667;SDS011;52369;52.542;13.232;2022-09-28T00:18:53;9.98;;;4.25;;
65667;SDS011;52369;52.542;13.232;2022-09-28T00:21:20;3.83;;;2.15;;
65667;SDS011;52369;52.542;13.232;2022-09-28T00:23:46;5.05;;;2.75;;
65667;SDS011;52369;52.542;13.232;2022-09-28T00:26:32;11.82;;;6.03;;
65667;SDS011;52369;52.542;13.232;2022-09-28T00:28:59;7.28;;;3.75;;
65667;SDS011;52369;52.542;13.232;2022-09-28T00:31:25;6.43;;;2.70;;
65667;SDS011;52369;52.542;13.232;2022-09-28T00:33:53;3.88;;;2.53;;
65667;SDS011;52369;52.542;13.232;2022-09-28T00:36:21;3.72;;;2.42;;
65667;SDS011;52369;52.542;13.232;2022-09-28T00:38:47;6.35;;;2.83;;
65667;SDS011;52369;52.542;13.232;2022-09-28T00:41:13;3.95;;;2.58;;
65667;SDS011;52369;52.542;13.232;2022-09-28T00:43:39;4.07;;;2.20;;
65667;SDS011;52369;52.542;13.232;2022-09-28T00:46:09;3.78;;;2.28;;
65667;SDS011;52369;52.542;13.232;2022-09-28T00:48:37;6.80;;;3.10;;
65667;SDS011;52369;52.542;13.232;2022-09-28T00:51:06;5.07;;;2.90;;
65667;SDS011;52369;52.542;13.232;2022-09-28T00:53:34;4.10;;;2.70;;
65667;SDS011;52369;52.542;13.232;2022-09-28T00:56:02;4.65;;;2.60;;
65667;SDS011;52369;52.542;13.232;2022-09-28T00:58:33;4.50;;;2.50;;
65667;SDS011;52369;52.542;13.232;2022-09-28T01:00:59;4.85;;;2.90;;
65667;SDS011;52369;52.542;13.232;2022-09-28T01:03:26;5.50;;;2.55;;
65667;SDS011;52369;52.542;13.232;2022-09-28T01:05:54;5.47;;;2.55;;
65667;SDS011;52369;52.542;13.232;2022-09-28T01:08:20;5.90;;;2.70;;
65667;SDS011;52369;52.542;13.232;2022-09-28T01:10:48;6.10;;;3.33;;
65667;SDS011;52369;52.542;13.232;2022-09-28T01:13:15;3.88;;;2.35;;
65667;SDS011;52369;52.542;13.232;2022-09-28T01:15:45;3.28;;;2.50;;
65667;SDS011;52369;52.542;13.232;2022-09-28T01:18:16;4.27;;;2.60;;
65667;SDS011;52369;52.542;13.232;2022-09-28T01:25:54;4.82;;;2.10;;
65667;SDS011;52369;52.542;13.232;2022-09-28T01:28:24;7.32;;;2.80;;
65667;SDS011;52369;52.542;13.232;2022-09-28T01:33:29;4.95;;;2.90;;
65667;SDS011;52369;52.542;13.232;2022-09-28T01:35:58;3.92;;;2.55;;
65667;SDS011;52369;52.542;13.232;2022-09-28T01:38:28;4.00;;;2.17;;
65667;SDS011;52369;52.542;13.232;2022-09-28T01:40:56;2.63;;;1.98;;
65667;SDS011;52369;52.542;13.232;2022-09-28T01:43:24;3.47;;;2.42;;
65667;SDS011;52369;52.542;13.232;2022-09-28T01:45:54;4.20;;;2.50;;
65667;SDS011;52369;52.542;13.232;2022-09-28T01:48:26;6.30;;;2.90;;
65667;SDS011;52369;52.542;13.232;2022-09-28T01:50:54;5.95;;;2.50;;
65667;SDS011;52369;52.542;13.232;2022-09-28T01:53:24;3.42;;;1.90;;
65667;SDS011;52369;52.542;13.232;2022-09-28T01:55:52;4.03;;;2.33;;
65667;SDS011;52369;52.542;13.232;2022-09-28T01:58:21;3.50;;;2.13;;
65667;SDS011;52369;52.542;13.232;2022-09-28T02:00:51;5.13;;;2.58;;
65667;SDS011;52369;52.542;13.232;2022-09-28T02:03:19;2.33;;;2.10;;
65667;SDS011;52369;52.542;13.232;2022-09-28T02:05:49;4.15;;;2.45;;
65667;SDS011;52369;52.542;13.232;2022-09-28T02:08:27;4.65;;;2.30;;
65667;SDS011;52369;52.542;13.232;2022-09-28T02:10:56;2.88;;;2.42;;
65667;SDS011;52369;52.542;13.232;2022-09-28T02:13:34;5.38;;;2.40;;
65667;SDS011;52369;52.542;13.232;2022-09-28T02:18:31;3.78;;;2.35;;
65667;SDS011;52369;52.542;13.232;2022-09-28T02:23:45;5.18;;;2.47;;
65667;SDS011;52369;52.542;13.232;2022-09-28T02:26:15;5.05;;;2.90;;
65667;SDS011;52369;52.542;13.232;2022-09-28T02:28:42;4.45;;;2.88;;
65667;SDS011;52369;52.542;13.232;2022-09-28T02:31:08;4.53;;;2.65;;
65667;SDS011;52369;52.542;13.232;2022-09-28T02:33:37;3.85;;;2.13;;
65667;SDS011;52369;52.542;13.232;2022-09-28T02:36:04;4.05;;;2.55;;
65667;SDS011;52369;52.542;13.232;2022-09-28T02:38:31;3.95;;;2.63;;
65667;SDS011;52369;52.542;13.232;2022-09-28T02:43:30;6.32;;;2.72;;
65667;SDS011;52369;52.542;13.232;2022-09-28T02:51:14;4.20;;;2.85;;
65667;SDS011;52369;52.542;13.232;2022-09-28T02:56:17;6.30;;;3.08;;
65667;SDS011;52369;52.542;13.232;2022-09-28T02:58:48;5.13;;;2.83;;
65667;SDS011;52369;52.542;13.232;2022-09-28T03:08:44;7.20;;;3.17;;
65667;SDS011;52369;52.542;13.232;2022-09-28T03:11:20;6.47;;;3.60;;
65667;SDS011;52369;52.542;13.232;2022-09-28T03:13:47;5.35;;;3.10;;
65667;SDS011;52369;52.542;13.232;2022-09-28T03:16:15;5.90;;;3.05;;
65667;SDS011;52369;52.542;13.232;2022-09-28T03:18:41;6.25;;;3.78;;
65667;SDS011;52369;52.542;13.232;2022-09-28T03:21:08;5.82;;;2.95;;
65667;SDS011;52369;52.542;13.232;2022-09-28T03:23:35;6.63;;;3.80;;
65667;SDS011;52369;52.542;13.232;2022-09-28T03:26:01;6.57;;;3.30;;
65667;SDS011;52369;52.542;13.232;2022-09-28T03:28:27;6.97;;;3.65;;
65667;SDS011;52369;52.542;13.232;2022-09-28T03:30:54;5.25;;;3.35;;
65667;SDS011;52369;52.542;13.232;2022-09-28T03:33:20;7.40;;;3.80;;
65667;SDS011;52369;52.542;13.232;2022-09-28T03:35:47;8.48;;;3.47;;
65667;SDS011;52369;52.542;13.232;2022-09-28T03:38:14;6.55;;;3.60;;
65667;SDS011;52369;52.542;13.232;2022-09-28T03:40:40;5.85;;;3.60;;
65667;SDS011;52369;52.542;13.232;2022-09-28T03:43:06;7.45;;;3.70;;
65667;SDS011;52369;52.542;13.232;2022-09-28T03:45:32;7.03;;;3.72;;
65667;SDS011;52369;52.542;13.232;2022-09-28T03:47:58;7.55;;;3.85;;
65667;SDS011;52369;52.542;13.232;2022-09-28T03:50:24;6.07;;;3.85;;
65667;SDS011;52369;52.542;13.232;2022-09-28T03:52:50;6.50;;;3.15;;
65667;SDS011;52369;52.542;13.232;2022-09-28T03:55:16;7.47;;;3.65;;
65667;SDS011;52369;52.542;13.232;2022-09-28T03:57:42;8.55;;;4.10;;
65667;SDS011;52369;52.542;13.232;2022-09-28T04:00:09;8.77;;;4.20;;
65667;SDS011;52369;52.542;13.232;2022-09-28T04:02:35;7.30;;;3.85;;
65667;SDS011;52369;52.542;13.232;2022-09-28T04:05:01;8.32;;;4.45;;
65667;SDS011;52369;52.542;13.232;2022-09-28T04:07:27;7.97;;;3.83;;
65667;SDS011;52369;52.542;13.232;2022-09-28T04:09:53;7.15;;;4.13;;
65667;SDS011;52369;52.542;13.232;2022-09-28T04:12:19;7.68;;;3.47;;
65667;SDS011;52369;52.542;13.232;2022-09-28T04:14:45;8.73;;;4.30;;
65667;SDS011;52369;52.542;13.232;2022-09-28T04:17:11;9.68;;;4.28;;
65667;SDS011;52369;52.542;13.232;2022-09-28T04:19:36;8.98;;;4.05;;
65667;SDS011;52369;52.542;13.232;2022-09-28T04:22:03;9.43;;;3.85;;
65667;SDS011;52369;52.542;13.232;2022-09-28T04:24:29;7.53;;;3.88;;
65667;SDS011;52369;52.542;13.232;2022-09-28T04:26:55;8.65;;;3.65;;
65667;SDS011;52369;52.542;13.232;2022-09-28T04:29:41;9.48;;;3.90;;
65667;SDS011;52369;52.542;13.232;2022-09-28T04:32:07;9.65;;;4.65;;
65667;SDS011;52369;52.542;13.232;2022-09-28T04:34:34;10.93;;;4.20;;
65667;SDS011;52369;52.542;13.232;2022-09-28T04:37:00;8.98;;;4.25;;
65667;SDS011;52369;52.542;13.232;2022-09-28T04:39:26;9.07;;;4.32;;
65667;SDS011;52369;52.542;13.232;2022-09-28T04:41:52;11.25;;;4.60;;
65667;SDS011;52369;52.542;13.232;2022-09-28T04:44:18;9.00;;;4.53;;
65667;SDS011;52369;52.542;13.232;2022-09-28T04:46:44;10.85;;;4.75;;
65667;SDS011;52369;52.542;13.232;2022-09-28T04:49:10;10.57;;;4.80;;
65667;SDS011;52369;52.542;13.232;2022-09-28T04:51:36;8.85;;;4.40;;
65667;SDS011;52369;52.542;13.232;2022-09-28T04:54:02;9.57;;;4.70;;
65667;SDS011;52369;52.542;13.232;2022-09-28T04:56:28;9.35;;;4.65;;
65667;SDS011;52369;52.542;13.232;2022-09-28T04:58:54;11.05;;;5.10;;
65667;SDS011;52369;52.542;13.232;2022-09-28T05:01:20;11.40;;;5.57;;
65667;SDS011;52369;52.542;13.232;2022-09-28T05:03:48;9.48;;;5.18;;
65667;SDS011;52369;52.542;13.232;2022-09-28T05:06:15;10.15;;;5.13;;
65667;SDS011;52369;52.542;13.232;2022-09-28T05:08:41;10.45;;;5.40;;
65667;SDS011;52369;52.542;13.232;2022-09-28T05:11:10;9.82;;;4.72;;
65667;SDS011;52369;52.542;13.232;2022-09-28T05:13:40;9.88;;;4.95;;
65667;SDS011;52369;52.542;13.232;2022-09-28T05:16:06;11.77;;;5.00;;
65667;SDS011;52369;52.542;13.232;2022-09-28T05:18:33;13.80;;;5.25;;
65667;SDS011;52369;52.542;13.232;2022-09-28T05:20:58;8.75;;;4.30;;
65667;SDS011;52369;52.542;13.232;2022-09-28T05:23:25;8.82;;;4.18;;
65667;SDS011;52369;52.542;13.232;2022-09-28T05:25:51;9.15;;;4.55;;
65667;SDS011;52369;52.542;13.232;2022-09-28T05:28:25;7.97;;;4.18;;
65667;SDS011;52369;52.542;13.232;2022-09-28T05:30:51;10.32;;;4.80;;
65667;SDS011;52369;52.542;13.232;2022-09-28T05:33:17;9.95;;;4.60;;
65667;SDS011;52369;52.542;13.232;2022-09-28T05:35:43;10.35;;;4.78;;
65667;SDS011;52369;52.542;13.232;2022-09-28T05:38:09;10.20;;;4.68;;
65667;SDS011;52369;52.542;13.232;2022-09-28T05:40:35;9.77;;;4.80;;
65667;SDS011;52369;52.542;13.232;2022-09-28T05:43:01;9.77;;;4.43;;
65667;SDS011;52369;52.542;13.232;2022-09-28T05:45:28;8.70;;;4.50;;
65667;SDS011;52369;52.542;13.232;2022-09-28T05:47:54;12.02;;;5.40;;
65667;SDS011;52369;52.542;13.232;2022-09-28T05:50:20;9.55;;;4.43;;
65667;SDS011;52369;52.542;13.232;2022-09-28T05:52:46;9.77;;;5.00;;
65667;SDS011;52369;52.542;13.232;2022-09-28T05:55:14;13.40;;;4.95;;
65667;SDS011;52369;52.542;13.232;2022-09-28T05:57:40;11.95;;;5.00;;
65667;SDS011;52369;52.542;13.232;2022-09-28T06:00:06;9.68;;;5.20;;
65667;SDS011;52369;52.542;13.232;2022-09-28T06:02:33;11.50;;;4.82;;
65667;SDS011;52369;52.542;13.232;2022-09-28T06:04:59;8.90;;;4.50;;
65667;SDS011;52369;52.542;13.232;2022-09-28T06:07:25;9.30;;;4.70;;
65667;SDS011;52369;52.542;13.232;2022-09-28T06:09:51;10.00;;;4.60;;
65667;SDS011;52369;52.542;13.232;2022-09-28T06:12:17;10.07;;;5.38;;
65667;SDS011;52369;52.542;13.232;2022-09-28T06:14:44;11.73;;;5.45;;
65667;SDS011;52369;52.542;13.232;2022-09-28T06:17:10;9.85;;;5.00;;
65667;SDS011;52369;52.542;13.232;2022-09-28T06:19:36;10.07;;;4.95;;
65667;SDS011;52369;52.542;13.232;2022-09-28T06:22:03;11.05;;;5.10;;
65667;SDS011;52369;52.542;13.232;2022-09-28T06:24:29;11.68;;;5.88;;
65667;SDS011;52369;52.542;13.232;2022-09-28T06:26:55;9.75;;;5.07;;
65667;SDS011;52369;52.542;13.232;2022-09-28T06:29:21;11.02;;;5.15;;
65667;SDS011;52369;52.542;13.232;2022-09-28T06:31:47;9.20;;;4.88;;
65667;SDS011;52369;52.542;13.232;2022-09-28T06:34:13;11.88;;;5.55;;
65667;SDS011;52369;52.542;13.232;2022-09-28T06:36:39;12.73;;;6.03;;
65667;SDS011;52369;52.542;13.232;2022-09-28T06:39:05;10.80;;;5.70;;
65667;SDS011;52369;52.542;13.232;2022-09-28T06:41:31;11.02;;;5.57;;
65667;SDS011;52369;52.542;13.232;2022-09-28T06:43:57;12.50;;;6.18;;
65667;SDS011;52369;52.542;13.232;2022-09-28T06:46:23;10.80;;;5.50;;
65667;SDS011;52369;52.542;13.232;2022-09-28T06:48:49;11.68;;;5.50;;
65667;SDS011;52369;52.542;13.232;2022-09-28T06:51:16;9.30;;;5.10;;
65667;SDS011;52369;52.542;13.232;2022-09-28T06:53:42;11.27;;;5.35;;
65667;SDS011;52369;52.542;13.232;2022-09-28T06:56:08;8.65;;;4.80;;
65667;SDS011;52369;52.542;13.232;2022-09-28T06:58:35;10.70;;;4.90;;
65667;SDS011;52369;52.542;13.232;2022-09-28T07:01:01;11.75;;;6.22;;
65667;SDS011;52369;52.542;13.232;2022-09-28T07:03:27;11.38;;;6.32;;
65667;SDS011;52369;52.542;13.232;2022-09-28T07:05:54;11.68;;;5.60;;
65667;SDS011;52369;52.542;13.232;2022-09-28T07:08:21;13.57;;;6.50;;
65667;SDS011;52369;52.542;13.232;2022-09-28T07:10:52;13.37;;;5.73;;
65667;SDS011;52369;52.542;13.232;2022-09-28T07:13:20;12.02;;;6.07;;
65667;SDS011;52369;52.542;13.232;2022-09-28T07:15:47;12.13;;;6.50;;
65667;SDS011;52369;52.542;13.232;2022-09-28T07:18:13;13.27;;;6.55;;
65667;SDS011;52369;52.542;13.232;2022-09-28T07:20:39;14.27;;;6.80;;
65667;SDS011;52369;52.542;13.232;2022-09-28T07:23:05;11.75;;;7.10;;
65667;SDS011;52369;52.542;13.232;2022-09-28T07:25:32;13.90;;;6.95;;
65667;SDS011;52369;52.542;13.232;2022-09-28T07:28:00;13.30;;;7.95;;
65667;SDS011;52369;52.542;13.232;2022-09-28T07:30:28;13.35;;;6.65;;
65667;SDS011;52369;52.542;13.232;2022-09-28T07:32:57;11.55;;;6.68;;
65667;SDS011;52369;52.542;13.232;2022-09-28T07:35:23;13.75;;;7.45;;
65667;SDS011;52369;52.542;13.232;2022-09-28T07:37:58;12.00;;;6.25;;
65667;SDS011;52369;52.542;13.232;2022-09-28T07:40:25;22.40;;;10.32;;
65667;SDS011;52369;52.542;13.232;2022-09-28T07:43:10;13.27;;;6.13;;
65667;SDS011;52369;52.542;13.232;2022-09-28T07:45:42;11.00;;;5.75;;
65667;SDS011;52369;52.542;13.232;2022-09-28T07:48:08;13.48;;;6.28;;
65667;SDS011;52369;52.542;13.232;2022-09-28T07:50:34;16.80;;;7.97;;
65667;SDS011;52369;52.542;13.232;2022-09-28T07:53:00;12.57;;;7.15;;
65667;SDS011;52369;52.542;13.232;2022-09-28T07:55:26;11.30;;;6.93;;
65667;SDS011;52369;52.542;13.232;2022-09-28T07:57:57;13.38;;;6.47;;
65667;SDS011;52369;52.542;13.232;2022-09-28T08:00:26;12.32;;;6.50;;
65667;SDS011;52369;52.542;13.232;2022-09-28T08:02:52;12.63;;;6.22;;
65667;SDS011;52369;52.542;13.232;2022-09-28T08:05:18;13.13;;;6.15;;
65667;SDS011;52369;52.542;13.232;2022-09-28T08:07:44;13.20;;;6.55;;
65667;SDS011;52369;52.542;13.232;2022-09-28T08:10:10;12.18;;;5.78;;
65667;SDS011;52369;52.542;13.232;2022-09-28T08:12:36;10.70;;;5.40;;
65667;SDS011;52369;52.542;13.232;2022-09-28T08:15:05;12.02;;;6.00;;
65667;SDS011;52369;52.542;13.232;2022-09-28T08:17:36;14.48;;;5.70;;
65667;SDS011;52369;52.542;13.232;2022-09-28T08:20:03;13.57;;;7.18;;
65667;SDS011;52369;52.542;13.232;2022-09-28T08:22:48;11.02;;;5.80;;
65667;SDS011;52369;52.542;13.232;2022-09-28T08:25:14;13.52;;;6.70;;
65667;SDS011;52369;52.542;13.232;2022-09-28T08:27:40;11.45;;;6.50;;
65667;SDS011;52369;52.542;13.232;2022-09-28T08:30:06;12.10;;;6.47;;
65667;SDS011;52369;52.542;13.232;2022-09-28T08:32:32;11.90;;;6.10;;
65667;SDS011;52369;52.542;13.232;2022-09-28T08:34:59;13.38;;;6.28;;
65667;SDS011;52369;52.542;13.232;2022-09-28T08:37:25;12.13;;;5.82;;
65667;SDS011;52369;52.542;13.232;2022-09-28T08:39:51;14.13;;;6.10;;
65667;SDS011;52369;52.542;13.232;2022-09-28T08:42:33;11.43;;;6.25;;
65667;SDS011;52369;52.542;13.232;2022-09-28T08:45:07;12.15;;;5.60;;
65667;SDS011;52369;52.542;13.232;2022-09-28T08:50:21;9.82;;;5.65;;
65667;SDS011;52369;52.542;13.232;2022-09-28T08:52:50;13.18;;;6.22;;
65667;SDS011;52369;52.542;13.232;2022-09-28T08:55:29;12.73;;;6.47;;
65667;SDS011;52369;52.542;13.232;2022-09-28T08:58:04;10.40;;;6.10;;
65667;SDS011;52369;52.542;13.232;2022-09-28T09:00:33;11.68;;;5.80;;
65667;SDS011;52369;52.542;13.232;2022-09-28T09:03:04;14.35;;;6.70;;
65667;SDS011;52369;52.542;13.232;2022-09-28T09:06:00;11.52;;;6.25;;
65667;SDS011;52369;52.542;13.232;2022-09-28T09:08:46;12.32;;;6.28;;
65667;SDS011;52369;52.542;13.232;2022-09-28T09:11:32;11.93;;;6.03;;
65667;SDS011;52369;52.542;13.232;2022-09-28T09:18:55;10.00;;;5.90;;
65667;SDS011;52369;52.542;13.232;2022-09-28T09:26:41;11.32;;;6.75;;
65667;SDS011;52369;52.542;13.232;2022-09-28T09:37:09;7.68;;;5.22;;
65667;SDS011;52369;52.542;13.232;2022-09-28T09:50:04;8.43;;;4.00;;
65667;SDS011;52369;52.542;13.232;2022-09-28T09:52:48;5.70;;;3.72;;
65667;SDS011;52369;52.542;13.232;2022-09-28T09:55:21;7.97;;;4.55;;
65667;SDS011;52369;52.542;13.232;2022-09-28T09:58:11;6.60;;;3.90;;
65667;SDS011;52369;52.542;13.232;2022-09-28T10:00:42;7.75;;;3.67;;
65667;SDS011;52369;52.542;13.232;2022-09-28T10:03:13;4.55;;;3.35;;
65667;SDS011;52369;52.542;13.232;2022-09-28T10:05:41;6.18;;;3.00;;
65667;SDS011;52369;52.542;13.232;2022-09-28T10:08:11;5.55;;;3.03;;
65667;SDS011;52369;52.542;13.232;2022-09-28T10:11:03;6.20;;;2.80;;
65667;SDS011;52369;52.542;13.232;2022-09-28T10:13:25;4.20;;;2.75;;
65667;SDS011;52369;52.542;13.232;2022-09-28T10:15:53;5.30;;;2.88;;
65667;SDS011;52369;52.542;13.232;2022-09-28T10:18:20;3.95;;;2.50;;
65667;SDS011;52369;52.542;13.232;2022-09-28T10:20:46;5.65;;;3.00;;
65667;SDS011;52369;52.542;13.232;2022-09-28T10:23:21;7.47;;;2.55;;
65667;SDS011;52369;52.542;13.232;2022-09-28T10:25:50;3.53;;;2.05;;
65667;SDS011;52369;52.542;13.232;2022-09-28T10:28:18;8.18;;;3.67;;
65667;SDS011;52369;52.542;13.232;2022-09-28T10:30:46;13.27;;;4.82;;
65667;SDS011;52369;52.542;13.232;2022-09-28T10:33:29;4.40;;;2.22;;
65667;SDS011;52369;52.542;13.232;2022-09-28T10:35:56;3.53;;;1.65;;
65667;SDS011;52369;52.542;13.232;2022-09-28T10:38:23;4.40;;;1.85;;
65667;SDS011;52369;52.542;13.232;2022-09-28T10:40:58;3.88;;;2.20;;
65667;SDS011;52369;52.542;13.232;2022-09-28T10:43:26;3.40;;;2.10;;
65667;SDS011;52369;52.542;13.232;2022-09-28T10:45:59;3.97;;;1.40;;
65667;SDS011;52369;52.542;13.232;2022-09-28T10:48:25;2.38;;;1.85;;
65667;SDS011;52369;52.542;13.232;2022-09-28T10:50:57;8.57;;;2.00;;
65667;SDS011;52369;52.542;13.232;2022-09-28T10:53:24;2.65;;;1.35;;
65667;SDS011;52369;52.542;13.232;2022-09-28T10:55:58;1.83;;;1.20;;
65667;SDS011;52369;52.542;13.232;2022-09-28T10:58:25;5.47;;;1.83;;
65667;SDS011;52369;52.542;13.232;2022-09-28T11:00:51;4.53;;;1.52;;
65667;SDS011;52369;52.542;13.232;2022-09-28T11:03:24;7.40;;;1.50;;
65667;SDS011;52369;52.542;13.232;2022-09-28T11:05:57;2.97;;;1.55;;
65667;SDS011;52369;52.542;13.232;2022-09-28T11:08:25;6.63;;;1.77;;
65667;SDS011;52369;52.542;13.232;2022-09-28T11:11:02;3.53;;;1.67;;
65667;SDS011;52369;52.542;13.232;2022-09-28T11:13:28;5.80;;;1.67;;
65667;SDS011;52369;52.542;13.232;2022-09-28T11:15:54;2.83;;;1.45;;
65667;SDS011;52369;52.542;13.232;2022-09-28T11:18:25;2.15;;;1.55;;
65667;SDS011;52369;52.542;13.232;2022-09-28T11:21:05;3.10;;;1.88;;
65667;SDS011;52369;52.542;13.232;2022-09-28T11:23:31;1.77;;;1.63;;
65667;SDS011;52369;52.542;13.232;2022-09-28T11:26:01;3.13;;;1.95;;
65667;SDS011;52369;52.542;13.232;2022-09-28T11:28:33;3.10;;;2.10;;
65667;SDS011;52369;52.542;13.232;2022-09-28T11:31:01;2.40;;;1.80;;
65667;SDS011;52369;52.542;13.232;2022-09-28T11:33:34;6.03;;;2.30;;
65667;SDS011;52369;52.542;13.232;2022-09-28T11:44:24;5.22;;;2.30;;
65667;SDS011;52369;52.542;13.232;2022-09-28T11:46:57;4.53;;;1.95;;
65667;SDS011;52369;52.542;13.232;2022-09-28T11:50:12;3.10;;;2.20;;
65667;SDS011;52369;52.542;13.232;2022-09-28T11:54:43;2.63;;;2.08;;
65667;SDS011;52369;52.542;13.232;2022-09-28T11:57:13;2.90;;;1.98;;
65667;SDS011;52369;52.542;13.232;2022-09-28T12:00:00;5.18;;;2.20;;
65667;SDS011;52369;52.542;13.232;2022-09-28T12:02:34;3.58;;;1.83;;
65667;SDS011;52369;52.542;13.232;2022-09-28T12:07:34;3.53;;;1.77;;
65667;SDS011;52369;52.542;13.232;2022-09-28T12:10:06;5.22;;;2.80;;
65667;SDS011;52369;52.542;13.232;2022-09-28T12:12:36;2.15;;;1.73;;
65667;SDS011;52369;52.542;13.232;2022-09-28T12:15:21;2.60;;;1.50;;
65667;SDS011;52369;52.542;13.232;2022-09-28T12:20:24;1.70;;;1.55;;
65667;SDS011;52369;52.542;13.232;2022-09-28T12:23:33;3.78;;;1.42;;
65667;SDS011;52369;52.542;13.232;2022-09-28T12:26:02;4.53;;;2.28;;
65667;SDS011;52369;52.542;13.232;2022-09-28T12:28:32;3.80;;;2.08;;
65667;SDS011;52369;52.542;13.232;2022-09-28T12:31:02;3.03;;;1.63;;
65667;SDS011;52369;52.542;13.232;2022-09-28T12:33:32;1.42;;;1.30;;
65667;SDS011;52369;52.542;13.232;2022-09-28T12:36:15;4.25;;;1.90;;
65667;SDS011;52369;52.542;13.232;2022-09-28T12:51:47;4.18;;;1.77;;
65667;SDS011;52369;52.542;13.232;2022-09-28T12:56:48;1.20;;;0.98;;
65667;SDS011;52369;52.542;13.232;2022-09-28T12:59:30;2.13;;;1.20;;
65667;SDS011;52369;52.542;13.232;2022-09-28T13:02:46;1.30;;;1.08;;
65667;SDS011;52369;52.542;13.232;2022-09-28T13:05:00;5.40;;;2.13;;
65667;SDS011;52369;52.542;13.232;2022-09-28T13:12:47;0.85;;;0.68;;
65667;SDS011;52369;52.542;13.232;2022-09-28T13:25:15;1.75;;;0.90;;
65667;SDS011;52369;52.542;13.232;2022-09-28T13:27:45;1.60;;;1.15;;
65667;SDS011;52369;52.542;13.232;2022-09-28T13:30:13;1.55;;;0.80;;
65667;SDS011;52369;52.542;13.232;2022-09-28T13:32:41;2.63;;;1.73;;
65667;SDS011;52369;52.542;13.232;2022-09-28T13:35:14;2.50;;;1.38;;
65667;SDS011;52369;52.542;13.232;2022-09-28T13:37:44;1.58;;;0.90;;
65667;SDS011;52369;52.542;13.232;2022-09-28T13:40:10;1.60;;;0.90;;
65667;SDS011;52369;52.542;13.232;2022-09-28T13:53:19;2.97;;;1.30;;
65667;SDS011;52369;52.542;13.232;2022-09-28T13:55:50;2.40;;;1.10;;
65667;SDS011;52369;52.542;13.232;2022-09-28T13:58:23;2.72;;;2.08;;
65667;SDS011;52369;52.542;13.232;2022-09-28T14:00:58;3.10;;;1.63;;
65667;SDS011;52369;52.542;13.232;2022-09-28T14:14:22;1.33;;;0.88;;
65667;SDS011;52369;52.542;13.232;2022-09-28T14:16:49;0.70;;;0.70;;
65667;SDS011;52369;52.542;13.232;2022-09-28T14:27:00;3.20;;;1.92;;
65667;SDS011;52369;52.542;13.232;2022-09-28T14:29:33;0.93;;;0.75;;
65667;SDS011;52369;52.542;13.232;2022-09-28T14:32:03;1.13;;;1.02;;
65667;SDS011;52369;52.542;13.232;2022-09-28T14:34:31;1.75;;;0.70;;
65667;SDS011;52369;52.542;13.232;2022-09-28T14:36:58;4.45;;;1.45;;
65667;SDS011;52369;52.542;13.232;2022-09-28T14:39:44;5.78;;;2.45;;
65667;SDS011;52369;52.542;13.232;2022-09-28T14:42:29;7.55;;;4.20;;
65667;SDS011;52369;52.542;13.232;2022-09-28T14:47:37;1.73;;;1.10;;
65667;SDS011;52369;52.542;13.232;2022-09-28T14:50:24;1.05;;;0.80;;
65667;SDS011;52369;52.542;13.232;2022-09-28T14:53:04;2.08;;;0.80;;
65667;SDS011;52369;52.542;13.232;2022-09-28T14:55:31;4.60;;;1.90;;
65667;SDS011;52369;52.542;13.232;2022-09-28T14:57:59;3.40;;;1.52;;
65667;SDS011;52369;52.542;13.232;2022-09-28T15:00:28;2.35;;;1.50;;
65667;SDS011;52369;52.542;13.232;2022-09-28T15:02:59;1.92;;;1.30;;
65667;SDS011;52369;52.542;13.232;2022-09-28T15:05:28;2.00;;;1.50;;
65667;SDS011;52369;52.542;13.232;2022-09-28T15:07:54;2.03;;;1.40;;
65667;SDS011;52369;52.542;13.232;2022-09-28T15:10:29;4.28;;;1.98;;
65667;SDS011;52369;52.542;13.232;2022-09-28T15:13:03;1.85;;;1.17;;
65667;SDS011;52369;52.542;13.232;2022-09-28T15:15:36;2.92;;;1.92;;
65667;SDS011;52369;52.542;13.232;2022-09-28T15:18:26;2.38;;;1.70;;
65667;SDS011;52369;52.542;13.232;2022-09-28T15:20:52;2.85;;;1.77;;
65667;SDS011;52369;52.542;13.232;2022-09-28T15:25:55;4.40;;;2.45;;
65667;SDS011;52369;52.542;13.232;2022-09-28T15:28:22;2.15;;;1.90;;
65667;SDS011;52369;52.542;13.232;2022-09-28T15:30:49;4.25;;;1.90;;
65667;SDS011;52369;52.542;13.232;2022-09-28T15:33:48;3.78;;;2.55;;
65667;SDS011;52369;52.542;13.232;2022-09-28T15:36:27;3.50;;;2.45;;
65667;SDS011;52369;52.542;13.232;2022-09-28T15:38:55;6.40;;;3.90;;
65667;SDS011;52369;52.542;13.232;2022-09-28T15:41:21;3.38;;;2.83;;
65667;SDS011;52369;52.542;13.232;2022-09-28T15:44:02;3.25;;;2.95;;
65667;SDS011;52369;52.542;13.232;2022-09-28T15:46:31;4.88;;;2.97;;
65667;SDS011;52369;52.542;13.232;2022-09-28T15:48:59;4.82;;;3.22;;
65667;SDS011;52369;52.542;13.232;2022-09-28T15:51:26;4.82;;;3.33;;
65667;SDS011;52369;52.542;13.232;2022-09-28T15:56:20;6.78;;;3.25;;
65667;SDS011;52369;52.542;13.232;2022-09-28T16:01:33;5.10;;;3.00;;
65667;SDS011;52369;52.542;13.232;2022-09-28T16:04:06;3.47;;;3.00;;
65667;SDS011;52369;52.542;13.232;2022-09-28T16:09:31;7.13;;;3.40;;
65667;SDS011;52369;52.542;13.232;2022-09-28T16:11:58;4.80;;;3.47;;
65667;SDS011;52369;52.542;13.232;2022-09-28T16:14:32;6.20;;;2.90;;
65667;SDS011;52369;52.542;13.232;2022-09-28T16:16:59;3.67;;;2.78;;
65667;SDS011;52369;52.542;13.232;2022-09-28T16:19:29;5.03;;;3.38;;
65667;SDS011;52369;52.542;13.232;2022-09-28T16:21:56;4.97;;;3.08;;
65667;SDS011;52369;52.542;13.232;2022-09-28T16:24:27;7.13;;;4.25;;
65667;SDS011;52369;52.542;13.232;2022-09-28T16:31:49;6.55;;;3.55;;
65667;SDS011;52369;52.542;13.232;2022-09-28T16:34:23;6.70;;;4.00;;
65667;SDS011;52369;52.542;13.232;2022-09-28T16:36:49;4.83;;;3.40;;
65667;SDS011;52369;52.542;13.232;2022-09-28T16:39:15;5.13;;;3.65;;
65667;SDS011;52369;52.542;13.232;2022-09-28T16:41:45;4.38;;;3.38;;
65667;SDS011;52369;52.542;13.232;2022-09-28T16:44:14;4.68;;;3.53;;
65667;SDS011;52369;52.542;13.232;2022-09-28T16:46:42;5.22;;;3.50;;
65667;SDS011;52369;52.542;13.232;2022-09-28T16:49:10;4.93;;;3.28;;
65667;SDS011;52369;52.542;13.232;2022-09-28T16:51:36;6.10;;;3.80;;
65667;SDS011;52369;52.542;13.232;2022-09-28T16:54:12;5.30;;;3.60;;
65667;SDS011;52369;52.542;13.232;2022-09-28T16:56:57;6.00;;;3.78;;
65667;SDS011;52369;52.542;13.232;2022-09-28T16:59:23;6.25;;;4.15;;
65667;SDS011;52369;52.542;13.232;2022-09-28T17:01:49;5.70;;;3.90;;
65667;SDS011;52369;52.542;13.232;2022-09-28T17:04:15;6.22;;;4.00;;
65667;SDS011;52369;52.542;13.232;2022-09-28T17:06:41;5.30;;;3.70;;
65667;SDS011;52369;52.542;13.232;2022-09-28T17:09:07;6.47;;;3.92;;
65667;SDS011;52369;52.542;13.232;2022-09-28T17:11:36;5.97;;;3.95;;
65667;SDS011;52369;52.542;13.232;2022-09-28T17:14:02;5.90;;;3.70;;
65667;SDS011;52369;52.542;13.232;2022-09-28T17:16:29;7.00;;;3.67;;
65667;SDS011;52369;52.542;13.232;2022-09-28T17:18:55;5.50;;;3.47;;
65667;SDS011;52369;52.542;13.232;2022-09-28T17:21:21;5.68;;;3.72;;